• Join FlightAware (Why Join?)
  • Login
  • US Flag 
08:50AM EST


 

Airport Tracker/Info


-or-


 

Live Flight TrackerFlight Track Log ✈ FDX1155 ✈ 19-Jul-2013 ✈ KAFW - KIAH

Flight Track Log - Related Links

Times and Time Zones

All times are in EDT time to prevent confusion due to time zone crossing. See the FDX1155 flight status page for this flight to view local times or setup timezone preferences in your user account.

Time Position Orientation Groundspeed Altitude Reporting Facility
EDT Latitude Longitude Course Direction KTS MPH feet Rate Location/Type
04:44AM 32.9260 -97.3140 182° South 206 237 2,400  Level FlightAware
04:45AM 32.8970 -97.3160 183° South 234 269 3,300 1,800 Climbing FlightAware
04:45AM 32.8700 -97.3180 184° South 251 289 4,100 2,220 Climbing FlightAware
04:46AM 32.8250 -97.3080 169° South 270 311 5,600 2,940 Climbing FlightAware
04:46AM 32.7980 -97.2920 154° Southeast 275 316 6,800 3,000 Climbing FlightAware
04:47AM 32.7660 -97.2680 148° Southeast 278 320 8,300 2,640 Climbing FlightAware
04:47AM 32.7370 -97.2470 149° Southeast 289 333 9,300 2,280 Climbing FlightAware
04:47AM 32.7230 -97.2370 149° Southeast 294 338 9,800 1,260 Climbing FlightAware
04:48AM 32.6660 -97.1970 149° Southeast 349 402 10,500 1,080 Climbing FlightAware
04:49AM 32.6060 -97.1550 149° Southeast 382 440 11,400 1,560 Climbing FlightAware
04:50AM 32.5420 -97.1080 148° Southeast 399 459 12,700 2,040 Climbing FlightAware
04:50AM 32.4730 -97.0600 150° Southeast 404 465 14,300 1,980 Climbing FlightAware
04:51AM 32.4030 -97.0100 149° Southeast 414 476 15,600 1,680 Climbing FlightAware
04:52AM 32.3300 -96.9580 149° Southeast 430 495 16,700 1,620 Climbing FlightAware
04:52AM 32.2610 -96.9090 149° Southeast 434 499 17,900 1,680 Climbing FlightAware
04:53AM 32.1900 -96.8600 150° Southeast 442 509 19,000 1,680 Climbing FlightAware
04:54AM 32.1322 -96.8188 149° Southeast 442 509 20,000 1,620 Climbing FlightAware ADS-B
04:54AM 32.0656 -96.7727 150° Southeast 452 520 20,900 1,380 Climbing FlightAware ADS-B
04:55AM 31.9861 -96.7165 149° Southeast 459 528 21,900 1,260 Climbing FlightAware ADS-B
04:56AM 31.8766 -96.6402 149° Southeast 464 534 23,100 1,020 Climbing FlightAware ADS-B
04:57AM 31.7905 -96.5800 149° Southeast 488 562 23,700 900 Climbing FlightAware ADS-B
04:57AM 31.7304 -96.5380 149° Southeast 491 565 24,300 780 Climbing FlightAware ADS-B
04:58AM 31.5989 -96.4474 150° Southeast 495 570 25,000 420 Climbing FlightAware ADS-B
04:59AM 31.5359 -96.4037 149° Southeast 493 567 25,000  Level FlightAware ADS-B
04:59AM 31.4735 -96.3603 149° Southeast 494 568 25,000 -480 Level FlightAware ADS-B
05:01AM 31.2317 -96.1941 150° Southeast 489 563 23,800 -960 Descending FlightAware ADS-B
05:02AM 31.1739 -96.1540 149° Southeast 478 550 22,600 -2,520 Descending FlightAware ADS-B
05:02AM 31.1163 -96.1139 149° Southeast 471 542 21,300 -2,520 Descending FlightAware ADS-B
05:03AM 31.0575 -96.0746 150° Southeast 459 528 20,000 -2,520 Descending FlightAware ADS-B
05:04AM 30.9427 -95.9966 150° Southeast 439 505 17,300 -2,580 Descending FlightAware ADS-B
05:04AM 30.8871 -95.9586 150° Southeast 434 499 16,000 -2,520 Descending FlightAware ADS-B
05:05AM 30.8318 -95.9209 150° Southeast 430 495 14,700 -2,160 Descending FlightAware ADS-B
05:07AM 30.6750 -95.8144 150° Southeast 400 460 11,500 -1,380 Descending FlightAware ADS-B
05:09AM 30.4923 -95.6904 149° Southeast 328 377 9,900 -720 Descending FlightAware ADS-B
05:09AM 30.4730 -95.6770 149° Southeast 311 358 9,900 -720 Level FlightAware ADS-B
05:10AM 30.4037 -95.6317 152° Southeast 281 323 9,000 -1,140 Descending FlightAware ADS-B
05:11AM 30.3248 -95.5794 150° Southeast 269 310 7,500 -1,380 Descending FlightAware ADS-B
05:12AM 30.2333 -95.5172 150° Southeast 264 304 5,500 -1,380 Descending FlightAware ADS-B
05:13AM 30.2157 -95.5052 149° Southeast 260 299 5,200 -1,260 Descending FlightAware ADS-B
05:14AM 30.1578 -95.4664 150° Southeast 257 296 4,000 -1,200 Descending FlightAware ADS-B
05:14AM 30.1415 -95.4555 150° Southeast 248 285 3,800 -840 Descending FlightAware ADS-B
05:14AM 30.1205 -95.4423 151° Southeast 238 274 3,500 -840 Descending FlightAware ADS-B
05:15AM 30.1054 -95.4325 151° Southeast 232 267 3,300 -960 Descending FlightAware ADS-B
05:15AM 30.0923 -95.4246 152° Southeast 201 231 3,000 -1,140 Descending FlightAware ADS-B
05:15AM 30.0873 -95.4216 153° Southeast 196 226 2,900 -1,200 Descending FlightAware ADS-B
05:15AM 30.0759 -95.4146 152° Southeast 186 214 2,600 -1,500 Descending FlightAware ADS-B
05:15AM 30.0654 -95.4083 153° Southeast 175 201 2,200 -1,440 Descending FlightAware ADS-B
05:16AM 30.0569 -95.4032 153° Southeast 169 194 2,000 -1,260 Descending FlightAware ADS-B
05:16AM 30.0362 -95.3912 154° Southeast 149 171 1,300 -1,320 Descending FlightAware ADS-B
05:16AM 30.0275 -95.3858 152° Southeast 138 159 1,000 -1,140 Descending FlightAware ADS-B
05:17AM 30.0233 -95.3830 150° Southeast 134 154 900 -840 Descending FlightAware ADS-B
05:17AM 30.0187 -95.3803 153° Southeast 139 160 800 -840 Descending FlightAware ADS-B
05:17AM 30.0104 -95.3754 153° Southeast 142 163 600 -840 Descending FlightAware ADS-B
05:17AM 30.0011 -95.3698 152° Southeast 143 165 400 -960 Descending FlightAware ADS-B
05:17AM 29.9912 -95.3636 152° Southeast 144 166 100 -900 Descending FlightAware ADS-B
05:18AM 29.9887 -95.3621 153° Southeast 146 168 100  Level FlightAware ADS-B